createdAt,value
2017-11-01T00:00:24.561Z,8.66
2017-11-01T00:01:34.866Z,8.54
2017-11-01T00:02:45.185Z,8.63
2017-11-01T00:03:55.485Z,8.61
2017-11-01T00:05:05.702Z,8.6
2017-11-01T00:06:15.666Z,8.66
2017-11-01T00:07:25.959Z,8.61
2017-11-01T00:08:35.603Z,8.57
2017-11-01T00:09:45.557Z,8.64
2017-11-01T00:10:56.118Z,8.64
2017-11-01T00:12:06.078Z,8.66
2017-11-01T00:13:16.046Z,8.68
2017-11-01T00:14:26.018Z,8.63
2017-11-01T00:15:35.986Z,8.66
2017-11-01T00:16:45.871Z,8.75
2017-11-01T00:17:55.507Z,8.64
2017-11-01T00:19:05.489Z,8.71
2017-11-01T00:20:15.774Z,8.69
2017-11-01T00:21:25.743Z,8.68
2017-11-01T00:22:36.288Z,8.69
2017-11-01T00:23:46.571Z,8.71
2017-11-01T00:24:56.874Z,8.68
2017-11-01T00:26:07.178Z,8.74
2017-11-01T00:27:17.144Z,8.68
2017-11-01T00:28:27.677Z,8.74
2017-11-01T00:29:37.316Z,8.72
2017-11-01T00:30:47.597Z,8.75
2017-11-01T00:31:57.580Z,8.79
2017-11-01T00:33:07.874Z,8.74
2017-11-01T00:34:18.436Z,8.78
2017-11-01T00:35:28.723Z,8.74
2017-11-01T00:36:39.017Z,8.72
2017-11-01T00:37:49.313Z,8.78
2017-11-01T00:38:59.625Z,8.72
2017-11-01T00:40:09.887Z,8.81
2017-11-01T00:41:19.861Z,8.82
2017-11-01T00:42:30.150Z,8.77
2017-11-01T00:43:40.452Z,8.79
2017-11-01T00:44:50.747Z,8.81
2017-11-01T00:46:01.288Z,8.79
2017-11-01T00:47:11.574Z,8.87
2017-11-01T00:48:21.538Z,8.79
2017-11-01T00:49:31.820Z,8.77
2017-11-01T00:50:42.128Z,8.78
2017-11-01T00:51:52.354Z,8.86
2017-11-01T00:53:02.658Z,8.78
2017-11-01T00:54:12.962Z,8.79
2017-11-01T00:55:23.250Z,8.79
2017-11-01T00:56:33.550Z,8.79
2017-11-01T00:57:43.763Z,8.79
2017-11-01T00:58:54.048Z,8.79
2017-11-01T01:00:03.699Z,8.81
2017-11-01T01:01:13.983Z,8.89
2017-11-01T01:02:23.961Z,8.77
2017-11-01T01:03:34.505Z,8.81
2017-11-01T01:04:44.464Z,8.79
2017-11-01T01:05:54.756Z,8.77
2017-11-01T01:07:05.053Z,8.72
2017-11-01T01:08:15.340Z,8.79
2017-11-01T01:09:25.905Z,8.78
2017-11-01T01:10:35.872Z,8.77
2017-11-01T01:11:45.851Z,8.77
2017-11-01T01:12:56.142Z,8.79
2017-11-01T01:14:06.106Z,8.71
2017-11-01T01:15:16.322Z,8.75
2017-11-01T01:16:26.309Z,8.77
2017-11-01T01:17:36.266Z,8.82
2017-11-01T01:18:45.909Z,8.81
2017-11-01T01:19:56.219Z,8.78
2017-11-01T01:21:06.757Z,8.78
2017-11-01T01:22:16.724Z,8.78
2017-11-01T01:23:27.027Z,8.75
2017-11-01T01:24:37.317Z,8.71
2017-11-01T01:25:47.610Z,8.71
2017-11-01T01:26:57.821Z,8.74
2017-11-01T01:28:08.112Z,8.78
2017-11-01T01:29:18.098Z,8.78
2017-11-01T01:30:28.403Z,8.71
2017-11-01T01:31:38.687Z,8.71
2017-11-01T01:32:49.234Z,8.71
2017-11-01T01:33:59.526Z,8.79
2017-11-01T01:35:10.029Z,8.79
2017-11-01T01:36:19.674Z,8.81
2017-11-01T01:37:29.965Z,8.82
2017-11-01T01:38:40.491Z,8.77
2017-11-01T01:39:50.787Z,8.79
2017-11-01T01:41:01.077Z,8.75
2017-11-01T01:42:11.041Z,8.77
2017-11-01T01:43:21.333Z,8.74
2017-11-01T01:44:31.862Z,8.71
2017-11-01T01:45:41.827Z,8.69
2017-11-01T01:46:51.785Z,8.66
2017-11-01T01:48:01.750Z,8.74
2017-11-01T01:49:12.051Z,8.69
2017-11-01T01:50:22.264Z,8.63
2017-11-01T01:51:32.558Z,8.57
2017-11-01T01:52:42.855Z,8.68
2017-11-01T01:53:53.154Z,8.64
2017-11-01T01:55:03.124Z,8.69
2017-11-01T01:56:12.707Z,8.64
2017-11-01T01:57:22.997Z,8.56
2017-11-01T01:58:33.295Z,8.72
2017-11-01T01:59:43.597Z,8.6
2017-11-01T02:00:53.571Z,8.61
2017-11-01T02:02:04.120Z,8.69
2017-11-01T02:03:13.762Z,8.68
2017-11-01T02:04:23.721Z,8.64
2017-11-01T02:05:33.686Z,8.64
2017-11-01T02:06:43.991Z,8.59
2017-11-01T02:07:54.202Z,8.64
2017-11-01T02:09:04.165Z,8.66
2017-11-01T02:10:13.799Z,8.6
2017-11-01T02:11:23.767Z,8.61
2017-11-01T02:12:33.744Z,8.56
2017-11-01T02:13:44.302Z,8.68
2017-11-01T02:14:54.605Z,8.6
2017-11-01T02:16:04.895Z,8.6
2017-11-01T02:17:14.864Z,8.63
2017-11-01T02:18:25.159Z,8.56
2017-11-01T02:19:35.700Z,8.57
2017-11-01T02:20:45.986Z,8.69
2017-11-01T02:21:55.953Z,8.53
2017-11-01T02:23:06.262Z,8.66
2017-11-01T02:24:16.218Z,8.66
2017-11-01T02:25:26.764Z,8.56
2017-11-01T02:26:37.085Z,8.59
2017-11-01T02:27:47.369Z,8.61
2017-11-01T02:28:57.663Z,8.64
2017-11-01T02:30:07.956Z,8.44
2017-11-01T02:31:18.191Z,8.53
2017-11-01T02:32:28.485Z,8.56
2017-11-01T02:33:38.784Z,8.53
2017-11-01T02:34:49.087Z,8.5
2017-11-01T02:35:59.390Z,8.42
2017-11-01T02:37:09.943Z,8.39
2017-11-01T02:38:19.911Z,8.46
2017-11-01T02:39:30.200Z,8.41
2017-11-01T02:40:39.840Z,8.35
2017-11-01T02:41:50.034Z,8.35
2017-11-01T02:43:00.590Z,8.34
2017-11-01T02:44:10.884Z,8.35
2017-11-01T02:45:21.200Z,8.36
2017-11-01T02:46:31.506Z,8.38
2017-11-01T02:47:41.481Z,8.39
2017-11-01T02:48:52.028Z,8.35
2017-11-01T02:50:02.327Z,8.32
2017-11-01T02:51:12.622Z,8.35
2017-11-01T02:52:22.586Z,8.41
2017-11-01T02:53:32.565Z,8.34
2017-11-01T02:54:42.781Z,8.38
2017-11-01T02:55:52.747Z,8.39
2017-11-01T02:57:03.028Z,8.41
2017-11-01T02:58:13.335Z,8.35
2017-11-01T02:59:23.330Z,8.38
2017-11-01T03:00:33.872Z,8.38
2017-11-01T03:01:43.838Z,8.35
2017-11-01T03:02:54.131Z,8.36
2017-11-01T03:04:04.429Z,8.32
2017-11-01T03:05:14.723Z,8.39
2017-11-01T03:06:25.294Z,8.35
2017-11-01T03:07:35.272Z,8.36
2017-11-01T03:08:45.557Z,8.38
2017-11-01T03:09:55.854Z,8.35
2017-11-01T03:11:06.144Z,8.36
2017-11-01T03:12:16.034Z,8.38
2017-11-01T03:13:25.664Z,8.39
2017-11-01T03:14:35.963Z,8.39
2017-11-01T03:15:45.933Z,8.38
2017-11-01T03:16:55.888Z,8.34
2017-11-01T03:18:06.141Z,8.31
2017-11-01T03:19:16.425Z,8.31
2017-11-01T03:20:26.707Z,8.31
2017-11-01T03:21:36.996Z,8.27
2017-11-01T03:22:47.290Z,8.23
2017-11-01T03:23:57.852Z,8.28
2017-11-01T03:25:08.161Z,8.24
2017-11-01T03:26:18.461Z,8.21
2017-11-01T03:27:28.414Z,8.2
2017-11-01T03:28:38.695Z,8.2
2017-11-01T03:29:48.976Z,8.23
2017-11-01T03:30:58.952Z,8.13
2017-11-01T03:32:09.249Z,8.2
2017-11-01T03:33:19.528Z,8.14
2017-11-01T03:34:29.837Z,8.18
2017-11-01T03:35:40.372Z,8.09
2017-11-01T03:36:50.661Z,8.13
2017-11-01T03:38:00.617Z,8.11
2017-11-01T03:39:10.917Z,8.11
2017-11-01T03:40:20.566Z,8.13
2017-11-01T03:41:31.119Z,8.06
2017-11-01T03:42:41.412Z,8.03
2017-11-01T03:43:51.707Z,8.05
2017-11-01T03:45:01.667Z,8.05
2017-11-01T03:46:11.965Z,8.08
2017-11-01T03:47:22.173Z,8.03
2017-11-01T03:48:32.462Z,8.02
2017-11-01T03:49:42.428Z,8.01
2017-11-01T03:50:52.734Z,8.08
2017-11-01T03:52:03.021Z,8.02
2017-11-01T03:53:13.562Z,7.87
2017-11-01T03:54:23.878Z,7.96
2017-11-01T03:55:34.157Z,7.88
2017-11-01T03:56:44.443Z,8.01
2017-11-01T03:57:54.750Z,7.91
2017-11-01T03:59:04.979Z,7.96
2017-11-01T04:00:15.268Z,7.84
2017-11-01T04:01:25.230Z,7.84
2017-11-01T04:02:35.511Z,7.9
2017-11-01T04:03:45.795Z,7.8
2017-11-01T04:04:56.323Z,7.8
2017-11-01T04:06:06.622Z,7.85
2017-11-01T04:07:16.579Z,7.85
2017-11-01T04:08:26.872Z,7.88
2017-11-01T04:09:36.848Z,7.84
2017-11-01T04:10:47.100Z,7.88
2017-11-01T04:11:57.387Z,7.85
2017-11-01T04:13:07.356Z,7.91
2017-11-01T04:14:17.646Z,7.84
2017-11-01T04:15:27.611Z,7.87
2017-11-01T04:16:38.168Z,7.9
2017-11-01T04:17:48.150Z,7.85
2017-11-01T04:18:58.447Z,7.91
2017-11-01T04:20:08.736Z,7.84
2017-11-01T04:21:19.028Z,7.84
2017-11-01T04:22:29.276Z,7.93
2017-11-01T04:23:39.565Z,7.78
2017-11-01T04:24:49.876Z,7.9
2017-11-01T04:26:00.181Z,7.77
2017-11-01T04:27:10.149Z,7.8
2017-11-01T04:28:20.722Z,7.85
2017-11-01T04:29:30.697Z,7.83
2017-11-01T04:30:40.996Z,7.85
2017-11-01T04:31:51.305Z,7.9
2017-11-01T04:33:01.606Z,7.84
2017-11-01T04:34:12.140Z,7.83
2017-11-01T04:35:22.471Z,7.84
2017-11-01T04:36:32.435Z,7.91
2017-11-01T04:37:42.732Z,7.83
2017-11-01T04:38:52.700Z,7.83
2017-11-01T04:40:03.254Z,7.81
2017-11-01T04:41:13.213Z,7.81
2017-11-01T04:42:23.499Z,7.9
2017-11-01T04:43:33.460Z,7.83
2017-11-01T04:44:43.767Z,7.81
2017-11-01T04:45:54.309Z,7.9
2017-11-01T04:47:04.279Z,7.85
2017-11-01T04:48:14.571Z,7.84
2017-11-01T04:49:24.876Z,7.77
2017-11-01T04:50:34.852Z,7.81
2017-11-01T04:51:45.064Z,7.9
2017-11-01T04:52:55.357Z,7.81
2017-11-01T04:54:05.330Z,7.91
2017-11-01T04:55:15.613Z,7.77
2017-11-01T04:56:25.571Z,7.84
2017-11-01T04:57:36.115Z,7.81
2017-11-01T04:58:46.071Z,7.85
2017-11-01T04:59:56.056Z,7.81
2017-11-01T05:01:06.021Z,7.88
2017-11-01T05:02:16.325Z,7.81
2017-11-01T05:03:26.867Z,7.77
2017-11-01T05:04:37.162Z,7.91
2017-11-01T05:05:47.443Z,7.87
2017-11-01T05:06:57.737Z,7.9
2017-11-01T05:08:08.080Z,7.9
2017-11-01T05:09:18.618Z,7.88
2017-11-01T05:10:28.906Z,7.95
2017-11-01T05:11:39.191Z,7.84
2017-11-01T05:12:49.503Z,7.88
2017-11-01T05:13:59.795Z,7.85
2017-11-01T05:15:10.337Z,7.96
2017-11-01T05:16:20.619Z,7.91
2017-11-01T05:17:30.925Z,7.88
2017-11-01T05:18:41.202Z,7.96
2017-11-01T05:19:51.510Z,7.95
2017-11-01T05:21:01.731Z,7.85
2017-11-01T05:22:12.016Z,7.88
2017-11-01T05:23:22.320Z,7.98
2017-11-01T05:24:31.967Z,7.85
2017-11-01T05:25:41.593Z,7.9
2017-11-01T05:26:52.144Z,7.93
2017-11-01T05:28:02.435Z,7.93
2017-11-01T05:29:12.709Z,7.91
2017-11-01T05:30:23.014Z,7.98
2017-11-01T05:31:33.311Z,7.98
2017-11-01T05:32:43.535Z,7.96
2017-11-01T05:33:53.841Z,7.93
2017-11-01T05:35:04.151Z,7.9
2017-11-01T05:36:14.448Z,7.88
2017-11-01T05:37:24.414Z,7.84
2017-11-01T05:38:34.974Z,7.98
2017-11-01T05:39:45.293Z,7.88
2017-11-01T05:40:55.599Z,7.95
2017-11-01T05:42:05.894Z,7.93
2017-11-01T05:43:16.198Z,7.87
2017-11-01T05:44:26.732Z,7.96
2017-11-01T05:45:36.694Z,7.96
2017-11-01T05:46:46.664Z,7.85
2017-11-01T05:47:56.301Z,7.84
2017-11-01T05:49:06.600Z,7.91
2017-11-01T05:50:17.131Z,7.85
2017-11-01T05:51:27.109Z,7.9
2017-11-01T05:52:37.397Z,7.91
2017-11-01T05:53:47.690Z,7.91
2017-11-01T05:54:57.989Z,7.87
2017-11-01T05:56:08.542Z,7.87
2017-11-01T05:57:18.837Z,7.95
2017-11-01T05:58:29.141Z,7.96
2017-11-01T05:59:39.433Z,7.99
2017-11-01T06:00:49.734Z,7.96
2017-11-01T06:02:00.273Z,7.93
2017-11-01T06:03:10.246Z,7.95
2017-11-01T06:04:20.535Z,7.95
2017-11-01T06:05:30.819Z,7.9
2017-11-01T06:06:40.780Z,7.98
2017-11-01T06:07:51.324Z,8.02
2017-11-01T06:09:00.974Z,7.9
2017-11-01T06:10:10.941Z,8.03
2017-11-01T06:11:20.910Z,8.02
2017-11-01T06:12:31.204Z,8.01
2017-11-01T06:13:41.475Z,7.96
2017-11-01T06:14:51.782Z,7.91
2017-11-01T06:16:01.752Z,8.01
2017-11-01T06:17:12.045Z,8.05
2017-11-01T06:18:22.336Z,7.98
2017-11-01T06:19:32.564Z,8.02
2017-11-01T06:20:42.516Z,8.05
2017-11-01T06:21:52.807Z,8.11
2017-11-01T06:23:03.103Z,8.06
2017-11-01T06:24:12.748Z,7.93
2017-11-01T06:25:23.292Z,8.03
2017-11-01T06:26:33.250Z,8.09
2017-11-01T06:27:43.225Z,8.05
2017-11-01T06:28:53.509Z,7.99
2017-11-01T06:30:03.817Z,8.03
2017-11-01T06:31:14.386Z,8.01
2017-11-01T06:32:24.349Z,7.99
2017-11-01T06:33:34.661Z,8.01
2017-11-01T06:34:44.955Z,8.02
2017-11-01T06:35:55.278Z,8.05
2017-11-01T06:37:06.110Z,8.06
2017-11-01T06:38:16.087Z,8.11
2017-11-01T06:39:26.374Z,8.06
2017-11-01T06:40:36.331Z,8.08
2017-11-01T06:41:46.624Z,8.02
2017-11-01T06:42:56.849Z,8.03
2017-11-01T06:44:07.129Z,8.11
2017-11-01T06:45:17.087Z,8.06
2017-11-01T06:46:27.397Z,8.13
2017-11-01T06:47:37.363Z,8.2
2017-11-01T06:48:47.249Z,8.2
2017-11-01T06:49:57.211Z,8.16
2017-11-01T06:51:06.856Z,8.17
2017-11-01T06:52:16.488Z,8.16
2017-11-01T06:53:26.772Z,8.14
2017-11-01T06:54:36.983Z,8.17
2017-11-01T06:55:47.265Z,8.17
2017-11-01T06:56:57.573Z,8.17
2017-11-01T06:58:07.864Z,8.17
2017-11-01T06:59:18.163Z,8.21
2017-11-01T07:00:28.711Z,8.21
2017-11-01T07:01:38.997Z,8.16
2017-11-01T07:02:49.291Z,8.21
2017-11-01T07:03:59.589Z,8.21
2017-11-01T07:05:09.551Z,8.2
2017-11-01T07:06:20.129Z,8.26
2017-11-01T07:07:30.420Z,8.2
2017-11-01T07:08:40.382Z,8.31
2017-11-01T07:09:50.679Z,8.27
2017-11-01T07:11:00.982Z,8.32
2017-11-01T07:12:11.206Z,8.34
2017-11-01T07:13:21.192Z,8.35
2017-11-01T07:14:31.480Z,8.28
2017-11-01T07:15:41.795Z,8.32
2017-11-01T07:16:52.074Z,8.35
2017-11-01T07:18:02.626Z,8.23
2017-11-01T07:19:12.931Z,8.31
2017-11-01T07:20:23.231Z,8.32
2017-11-01T07:21:33.515Z,8.2
2017-11-01T07:22:43.491Z,8.24
2017-11-01T07:23:54.024Z,8.16
2017-11-01T07:25:04.332Z,8.21
2017-11-01T07:26:14.634Z,8.14
2017-11-01T07:27:24.939Z,8.26
2017-11-01T07:28:35.229Z,8.24
2017-11-01T07:29:45.764Z,8.23
2017-11-01T07:30:56.051Z,8.21
2017-11-01T07:32:05.692Z,8.26
2017-11-01T07:33:15.664Z,8.26
2017-11-01T07:34:25.962Z,8.14
2017-11-01T07:35:36.521Z,8.31
2017-11-01T07:36:46.828Z,8.2
2017-11-01T07:37:57.133Z,8.2
2017-11-01T07:39:07.415Z,8.18
2017-11-01T07:40:17.411Z,8.26
2017-11-01T07:41:27.958Z,8.28
2017-11-01T07:42:38.257Z,8.34
2017-11-01T07:43:47.560Z,8.28
2017-11-01T07:44:57.858Z,8.32
2017-11-01T07:46:07.834Z,8.32
2017-11-01T07:47:18.049Z,8.28
2017-11-01T07:48:28.352Z,8.28
2017-11-01T07:49:38.311Z,8.28
2017-11-01T07:50:47.948Z,8.32
2017-11-01T07:51:58.238Z,8.34
2017-11-01T07:53:08.793Z,8.34
2017-11-01T07:54:19.078Z,8.32
2017-11-01T07:55:29.389Z,8.38
2017-11-01T07:56:39.356Z,8.42
2017-11-01T07:57:49.657Z,8.35
2017-11-01T07:58:59.891Z,8.35
2017-11-01T08:00:10.215Z,8.36
2017-11-01T08:01:20.496Z,8.36
2017-11-01T08:02:30.793Z,8.36
2017-11-01T08:03:41.082Z,8.36
2017-11-01T08:04:51.316Z,8.35
2017-11-01T08:06:01.277Z,8.52
2017-11-01T08:07:11.250Z,8.38
2017-11-01T08:08:21.537Z,8.52
2017-11-01T08:09:31.830Z,8.54
2017-11-01T08:10:42.373Z,8.53
2017-11-01T08:11:52.350Z,8.5
2017-11-01T08:13:02.636Z,8.49
2017-11-01T08:14:12.942Z,8.44
2017-11-01T08:15:22.907Z,8.46
2017-11-01T08:16:33.440Z,8.45
2017-11-01T08:17:43.728Z,8.56
2017-11-01T08:18:54.024Z,8.61
2017-11-01T08:20:04.318Z,8.66
2017-11-01T08:21:14.603Z,8.57
2017-11-01T08:22:25.147Z,8.6
2017-11-01T08:23:35.439Z,8.6
2017-11-01T08:24:45.406Z,8.53
2017-11-01T08:25:55.361Z,8.59
2017-11-01T08:27:05.319Z,8.64
2017-11-01T08:28:15.890Z,8.64
2017-11-01T08:29:26.183Z,8.57
2017-11-01T08:30:36.469Z,8.74
2017-11-01T08:31:46.112Z,8.69
2017-11-01T08:32:56.411Z,8.64
2017-11-01T08:34:06.988Z,8.71
2017-11-01T08:35:17.279Z,8.77
2017-11-01T08:36:27.577Z,8.77
2017-11-01T08:37:37.565Z,8.74
2017-11-01T08:38:47.528Z,8.77
2017-11-01T08:39:58.068Z,8.79
2017-11-01T08:41:08.036Z,8.81
2017-11-01T08:42:18.340Z,8.86
2017-11-01T08:43:28.628Z,8.82
2017-11-01T08:44:37.957Z,8.87
2017-11-01T08:45:48.235Z,8.86
2017-11-01T08:46:58.227Z,8.84
2017-11-01T08:48:08.531Z,8.92
2017-11-01T08:49:18.158Z,8.93
2017-11-01T08:50:28.227Z,8.97
2017-11-01T08:51:38.794Z,8.92
2017-11-01T08:52:48.429Z,8.89
2017-11-01T08:53:58.397Z,8.97
2017-11-01T08:55:08.688Z,8.89
2017-11-01T08:56:18.699Z,8.93
2017-11-01T08:57:29.259Z,8.86
2017-11-01T08:58:39.239Z,8.99
2017-11-01T08:59:49.536Z,8.89
2017-11-01T09:00:59.816Z,9.05
2017-11-01T09:02:10.119Z,9.03
2017-11-01T09:03:20.334Z,8.97
2017-11-01T09:04:30.630Z,8.96
2017-11-01T09:05:40.589Z,9.08
2017-11-01T09:06:50.568Z,9.05
2017-11-01T09:08:00.881Z,9.05
2017-11-01T09:09:11.105Z,9.05
2017-11-01T09:10:21.406Z,9.11
2017-11-01T09:11:31.372Z,9.08
2017-11-01T09:12:41.350Z,9.11
2017-11-01T09:13:51.632Z,9.12
2017-11-01T09:15:02.183Z,9.13
2017-11-01T09:16:12.475Z,9.12
2017-11-01T09:17:22.785Z,9.09
2017-11-01T09:18:33.073Z,9.19
2017-11-01T09:19:43.370Z,9.16
2017-11-01T09:20:53.926Z,9.18
2017-11-01T09:22:04.219Z,9.16
2017-11-01T09:23:14.506Z,9.18
2017-11-01T09:24:24.472Z,9.22
2017-11-01T09:25:34.761Z,9.13
2017-11-01T09:26:45.346Z,9.16
2017-11-01T09:27:55.310Z,9.18
2017-11-01T09:29:05.602Z,9.22
2017-11-01T09:30:15.563Z,9.22
2017-11-01T09:31:25.864Z,9.21
2017-11-01T09:32:36.403Z,9.27
2017-11-01T09:33:46.702Z,9.26
2017-11-01T09:34:57.006Z,9.24
2017-11-01T09:36:07.306Z,9.26
2017-11-01T09:37:17.640Z,9.24
2017-11-01T09:38:27.866Z,9.29
2017-11-01T09:39:37.840Z,9.3
2017-11-01T09:40:47.481Z,9.26
2017-11-01T09:41:57.781Z,9.29
2017-11-01T09:43:08.076Z,9.31
2017-11-01T09:44:18.285Z,9.26
2017-11-01T09:45:28.602Z,9.33
2017-11-01T09:46:38.564Z,9.39
2017-11-01T09:47:48.523Z,9.44
2017-11-01T09:48:59.120Z,9.47
2017-11-01T09:50:09.673Z,9.47
2017-11-01T09:51:19.977Z,9.49
2017-11-01T09:52:29.948Z,9.44
2017-11-01T09:53:40.293Z,9.45
2017-11-01T09:54:50.310Z,9.52
2017-11-01T09:56:00.893Z,9.51
2017-11-01T09:57:11.293Z,9.42
2017-11-01T09:58:21.653Z,9.4
2017-11-01T09:59:32.153Z,9.48
2017-11-01T10:00:42.463Z,9.58
2017-11-01T10:01:52.703Z,9.51
2017-11-01T10:03:03.005Z,9.59
2017-11-01T10:04:13.305Z,9.62
2017-11-01T10:05:23.601Z,9.55
2017-11-01T10:06:33.889Z,9.56
2017-11-01T10:07:44.094Z,9.56
2017-11-01T10:08:53.417Z,9.62
2017-11-01T10:10:03.710Z,9.56
2017-11-01T10:11:14.035Z,9.62
2017-11-01T10:12:24.318Z,9.63
2017-11-01T10:13:34.529Z,9.62
2017-11-01T10:14:44.168Z,9.55
2017-11-01T10:15:54.468Z,9.63
2017-11-01T10:17:04.765Z,9.63
2017-11-01T10:18:15.076Z,9.7
2017-11-01T10:19:25.622Z,9.66
2017-11-01T10:20:35.938Z,9.72
2017-11-01T10:21:46.229Z,9.69
2017-11-01T10:22:56.290Z,9.72
2017-11-01T10:24:05.955Z,9.72
2017-11-01T10:25:16.493Z,9.76
2017-11-01T10:26:26.781Z,9.7
2017-11-01T10:27:37.087Z,9.69
2017-11-01T10:28:47.373Z,9.72
2017-11-01T10:29:57.677Z,9.73
2017-11-01T10:31:07.892Z,9.8
2017-11-01T10:32:17.542Z,9.84
2017-11-01T10:33:27.515Z,9.87
2017-11-01T10:34:37.818Z,9.9
2017-11-01T10:35:48.113Z,9.84
2017-11-01T10:36:58.711Z,9.81
2017-11-01T10:38:08.975Z,9.81
2017-11-01T10:39:19.277Z,9.84
2017-11-01T10:40:29.597Z,9.82
2017-11-01T10:41:39.600Z,9.85
2017-11-01T10:42:49.832Z,9.85
2017-11-01T10:44:00.131Z,9.84
2017-11-01T10:45:10.101Z,9.84
2017-11-01T10:46:19.734Z,9.82
2017-11-01T10:47:29.388Z,9.87
2017-11-01T10:48:39.942Z,9.92
2017-11-01T10:49:50.251Z,9.9
2017-11-01T10:51:00.224Z,9.88
2017-11-01T10:52:10.537Z,9.88
2017-11-01T10:53:20.198Z,9.88
2017-11-01T10:54:30.759Z,9.85
2017-11-01T10:55:41.051Z,9.95
2017-11-01T10:56:50.357Z,9.91
2017-11-01T10:58:00.674Z,9.97
2017-11-01T10:59:10.955Z,9.99
2017-11-01T11:00:21.540Z,9.97
2017-11-01T11:01:31.556Z,9.94
2017-11-01T11:02:41.889Z,10.02
2017-11-01T11:03:52.193Z,10
2017-11-01T11:05:02.511Z,10.03
2017-11-01T11:06:12.754Z,10.05
2017-11-01T11:07:23.051Z,10.03
2017-11-01T11:08:33.338Z,10.1
2017-11-01T11:09:43.319Z,10.1
2017-11-01T11:10:53.620Z,10.1
2017-11-01T11:12:03.831Z,10.06
2017-11-01T11:13:13.799Z,10.1
2017-11-01T11:14:24.124Z,10.12
2017-11-01T11:15:34.081Z,10.1
2017-11-01T11:16:44.574Z,10.12
2017-11-01T11:17:55.145Z,10.1
2017-11-01T11:19:05.429Z,10.1
2017-11-01T11:20:15.725Z,10.18
2017-11-01T11:21:26.019Z,10.24
2017-11-01T11:22:36.389Z,10.18
2017-11-01T11:23:46.990Z,10.25
2017-11-01T11:24:57.283Z,10.21
2017-11-01T11:26:07.578Z,10.25
2017-11-01T11:27:17.888Z,10.21
2017-11-01T11:28:28.179Z,10.25
2017-11-01T11:29:38.722Z,10.18
2017-11-01T11:30:49.017Z,10.21
2017-11-01T11:31:59.325Z,10.31
2017-11-01T11:33:09.618Z,10.31
2017-11-01T11:34:19.587Z,10.23
2017-11-01T11:35:30.132Z,10.27
2017-11-01T11:36:40.430Z,10.23
2017-11-01T11:37:50.402Z,10.31
2017-11-01T11:39:00.710Z,10.39
2017-11-01T11:40:10.674Z,10.3
2017-11-01T11:41:21.210Z,10.27
2017-11-01T11:42:31.184Z,10.34
2017-11-01T11:43:41.470Z,10.36
2017-11-01T11:44:51.770Z,10.39
2017-11-01T11:46:02.078Z,10.33
2017-11-01T11:47:12.312Z,10.33
2017-11-01T11:48:22.280Z,10.38
2017-11-01T11:49:32.606Z,10.48
2017-11-01T11:50:43.115Z,10.39
2017-11-01T11:51:53.409Z,10.53
2017-11-01T11:53:03.633Z,10.39
2017-11-01T11:54:13.938Z,10.43
2017-11-01T11:55:24.244Z,10.42
2017-11-01T11:56:34.558Z,10.41
2017-11-01T11:57:44.920Z,10.45
2017-11-01T11:58:55.504Z,10.49
2017-11-01T12:00:05.548Z,10.46
2017-11-01T12:01:15.526Z,10.53
2017-11-01T12:02:25.838Z,10.55
2017-11-01T12:03:35.868Z,10.46
2017-11-01T12:04:46.092Z,10.51
2017-11-01T12:05:56.403Z,10.55
2017-11-01T12:07:06.715Z,10.53
2017-11-01T12:08:16.687Z,10.58
2017-11-01T12:09:26.984Z,10.49
2017-11-01T12:10:37.588Z,10.55
2017-11-01T12:11:47.908Z,10.55
2017-11-01T12:12:58.200Z,10.51
2017-11-01T12:14:08.511Z,10.67
2017-11-01T12:15:18.489Z,10.61
2017-11-01T12:16:29.048Z,10.58
2017-11-01T12:17:39.347Z,10.62
2017-11-01T12:18:49.521Z,10.67
2017-11-01T12:19:59.814Z,10.67
2017-11-01T12:21:09.788Z,10.62
2017-11-01T12:22:20.351Z,10.61
2017-11-01T12:23:30.334Z,10.67
2017-11-01T12:24:40.636Z,10.68
2017-11-01T12:25:50.268Z,10.72
2017-11-01T12:27:00.564Z,10.61
2017-11-01T12:28:10.235Z,10.67
2017-11-01T12:29:20.540Z,10.65
2017-11-01T12:30:30.841Z,10.68
2017-11-01T12:31:41.185Z,10.68
2017-11-01T12:32:51.742Z,10.72
2017-11-01T12:34:02.043Z,10.71
2017-11-01T12:35:12.018Z,10.75
2017-11-01T12:36:22.318Z,10.71
2017-11-01T12:37:32.603Z,10.77
2017-11-01T12:38:42.822Z,10.84
2017-11-01T12:39:52.797Z,10.75
2017-11-01T12:41:03.114Z,10.76
2017-11-01T12:42:13.425Z,10.82
2017-11-01T12:43:23.415Z,10.76
2017-11-01T12:44:33.709Z,10.76
2017-11-01T12:45:44.011Z,10.79
2017-11-01T12:46:54.297Z,10.76
2017-11-01T12:48:04.581Z,10.84
2017-11-01T12:49:14.875Z,10.79
2017-11-01T12:50:25.179Z,10.83
2017-11-01T12:51:35.150Z,10.79
2017-11-01T12:52:45.447Z,10.82
2017-11-01T12:53:55.759Z,10.83
2017-11-01T12:55:06.070Z,10.82
2017-11-01T12:56:16.038Z,10.89
2017-11-01T12:57:26.008Z,10.8
2017-11-01T12:58:35.976Z,10.86
2017-11-01T12:59:46.275Z,10.89
2017-11-01T13:00:56.579Z,10.94
2017-11-01T13:02:06.557Z,10.9
2017-11-01T13:03:16.847Z,10.9
2017-11-01T13:04:27.157Z,10.94
2017-11-01T13:05:36.805Z,10.95
2017-11-01T13:06:47.099Z,10.98
2017-11-01T13:07:57.061Z,10.94
2017-11-01T13:09:07.363Z,11
2017-11-01T13:10:17.680Z,10.94
2017-11-01T13:11:28.006Z,10.86
2017-11-01T13:12:38.346Z,11.01
2017-11-01T13:13:48.329Z,11.01
2017-11-01T13:14:58.627Z,10.89
2017-11-01T13:16:08.950Z,11.01
2017-11-01T13:17:19.241Z,10.95
2017-11-01T13:18:29.543Z,10.87
2017-11-01T13:19:39.857Z,10.98
2017-11-01T13:20:50.170Z,10.95
2017-11-01T13:22:00.147Z,10.97
2017-11-01T13:23:09.802Z,10.94
2017-11-01T13:24:19.773Z,10.95
2017-11-01T13:25:30.064Z,11.04
2017-11-01T13:26:40.363Z,11.02
2017-11-01T13:27:50.682Z,10.92
2017-11-01T13:29:00.988Z,10.95
2017-11-01T13:30:11.293Z,10.98
2017-11-01T13:31:21.819Z,11.04
2017-11-01T13:32:32.123Z,10.97
2017-11-01T13:33:42.416Z,10.95
2017-11-01T13:34:52.383Z,11.02
2017-11-01T13:36:02.672Z,11.05
2017-11-01T13:37:12.652Z,11.05
2017-11-01T13:38:22.948Z,11.02
2017-11-01T13:39:32.966Z,10.98
2017-11-01T13:40:43.259Z,11.1
2017-11-01T13:41:53.596Z,11.18
2017-11-01T13:43:03.578Z,11.08
2017-11-01T13:44:13.879Z,11.16
2017-11-01T13:45:24.165Z,11.08
2017-11-01T13:46:34.462Z,11.12
2017-11-01T13:47:44.753Z,11.08
2017-11-01T13:48:55.055Z,11.07
2017-11-01T13:50:05.379Z,11.16
2017-11-01T13:51:15.022Z,11.16
2017-11-01T13:52:25.001Z,11.2
2017-11-01T13:53:34.991Z,11.1
2017-11-01T13:54:44.987Z,11.23
2017-11-01T13:55:55.302Z,11.16
2017-11-01T13:57:05.609Z,11.13
2017-11-01T13:58:15.901Z,11.16
2017-11-01T13:59:25.874Z,11.23
2017-11-01T14:00:36.174Z,11.13
2017-11-01T14:01:46.145Z,11.16
2017-11-01T14:02:56.452Z,11.16
2017-11-01T14:04:06.751Z,11.19
2017-11-01T14:05:17.069Z,11.18
2017-11-01T14:06:27.035Z,11.2
2017-11-01T14:07:37.328Z,11.19
2017-11-01T14:08:47.653Z,11.19
2017-11-01T14:09:57.283Z,11.2
2017-11-01T14:11:07.584Z,11.15
2017-11-01T14:12:17.558Z,11.16
2017-11-01T14:13:27.527Z,11.13
2017-11-01T14:14:37.191Z,11.15
2017-11-01T14:15:47.473Z,11.1
2017-11-01T14:16:57.768Z,11.1
2017-11-01T14:18:07.745Z,11.12
2017-11-01T14:19:17.409Z,11.12
2017-11-01T14:20:27.408Z,11.15
2017-11-01T14:21:37.700Z,11.12
2017-11-01T14:22:47.989Z,11.19
2017-11-01T14:23:58.269Z,11.16
2017-11-01T14:25:08.244Z,11.16
2017-11-01T14:26:18.550Z,11.16
2017-11-01T14:27:28.883Z,11.16
2017-11-01T14:28:39.179Z,11.13
2017-11-01T14:29:49.495Z,11.18
2017-11-01T14:30:59.139Z,11.13
2017-11-01T14:32:09.470Z,11.16
2017-11-01T14:33:19.435Z,11.18
2017-11-01T14:34:29.755Z,11.18
2017-11-01T14:35:40.044Z,11.22
2017-11-01T14:36:50.347Z,11.19
2017-11-01T14:38:00.646Z,11.26
2017-11-01T14:39:10.960Z,11.18
2017-11-01T14:40:20.929Z,11.2
2017-11-01T14:41:30.588Z,11.25
2017-11-01T14:42:40.886Z,11.22
2017-11-01T14:43:51.195Z,11.18
2017-11-01T14:45:00.841Z,11.19
2017-11-01T14:46:11.152Z,11.22
2017-11-01T14:47:20.789Z,11.23
2017-11-01T14:48:31.079Z,11.19
2017-11-01T14:49:41.380Z,11.19
2017-11-01T14:50:51.683Z,11.25
2017-11-01T14:52:01.644Z,11.19
2017-11-01T14:53:11.940Z,11.15
2017-11-01T14:54:22.257Z,11.23
2017-11-01T14:55:32.559Z,11.18
2017-11-01T14:56:42.850Z,11.2
2017-11-01T14:57:52.502Z,11.22
2017-11-01T14:59:02.817Z,11.25
2017-11-01T15:00:13.118Z,11.16
2017-11-01T15:01:23.115Z,11.25
2017-11-01T15:02:33.087Z,11.26
2017-11-01T15:03:43.388Z,11.22
2017-11-01T15:04:53.697Z,11.2
2017-11-01T15:06:03.668Z,11.2
2017-11-01T15:07:13.957Z,11.18
2017-11-01T15:08:23.626Z,11.22
2017-11-01T15:09:33.588Z,11.23
2017-11-01T15:10:43.896Z,11.23
2017-11-01T15:11:54.180Z,11.2
2017-11-01T15:13:04.174Z,11.19
2017-11-01T15:14:14.485Z,11.2
2017-11-01T15:15:24.800Z,11.18
2017-11-01T15:16:35.092Z,11.18
2017-11-01T15:17:45.396Z,11.23
2017-11-01T15:18:55.692Z,11.22
2017-11-01T15:20:05.997Z,11.16
2017-11-01T15:21:16.296Z,11.2
2017-11-01T15:22:26.605Z,11.18
2017-11-01T15:23:36.574Z,11.25
2017-11-01T15:24:46.221Z,11.23
2017-11-01T15:25:56.182Z,11.2
2017-11-01T15:27:06.176Z,11.2
2017-11-01T15:28:16.138Z,11.13